createdAt,value
2018-06-20T00:01:52.655Z,88.12
2018-06-20T00:04:22.384Z,88.33
2018-06-20T00:06:51.622Z,88.31
2018-06-20T00:09:21.210Z,88.33
2018-06-20T00:11:51.943Z,86.55
2018-06-20T00:14:21.345Z,86.54
2018-06-20T00:16:56.931Z,85.91
2018-06-20T00:19:26.136Z,85.68
2018-06-20T00:21:55.703Z,86.54
2018-06-20T00:24:26.711Z,86.08
2018-06-20T00:26:55.936Z,85.39
2018-06-20T00:29:26.045Z,85.09
2018-06-20T00:31:55.256Z,85.74
2018-06-20T00:34:25.324Z,85.71
2018-06-20T00:36:55.251Z,85.84
2018-06-20T00:39:26.223Z,86.07
2018-06-20T00:41:55.434Z,86.61
2018-06-20T00:44:25.082Z,86.75
2018-06-20T00:46:54.347Z,86.75
2018-06-20T00:49:25.932Z,86.96
2018-06-20T00:51:55.154Z,86.95
2018-06-20T00:54:24.707Z,87.37
2018-06-20T00:56:54.804Z,86.83
2018-06-20T00:59:24.038Z,87.25
2018-06-20T01:01:53.258Z,87.18
2018-06-20T01:04:22.838Z,86.72
2018-06-20T01:06:52.034Z,87.00
2018-06-20T01:09:21.262Z,86.45
2018-06-20T01:11:50.632Z,86.05
2018-06-20T01:14:21.121Z,86.37
2018-06-20T01:16:50.689Z,86.44
2018-06-20T01:19:21.723Z,85.59
2018-06-20T01:21:51.978Z,86.20
2018-06-20T01:24:22.707Z,86.20
2018-06-20T01:26:52.907Z,86.56
2018-06-20T01:29:22.132Z,86.98
2018-06-20T01:31:51.987Z,86.93
2018-06-20T01:34:22.644Z,86.86
2018-06-20T01:36:52.534Z,87.20
2018-06-20T01:39:21.760Z,87.09
2018-06-20T01:41:50.951Z,86.96
2018-06-20T01:44:20.187Z,86.59
2018-06-20T01:46:50.882Z,86.93
2018-06-20T01:49:20.902Z,87.04
2018-06-20T01:51:50.503Z,86.78
2018-06-20T01:54:20.031Z,86.80
2018-06-20T01:56:49.222Z,87.06
2018-06-20T01:59:18.723Z,86.80
2018-06-20T02:01:48.142Z,86.50
2018-06-20T02:04:17.699Z,86.54
2018-06-20T02:06:47.663Z,86.74
2018-06-20T02:09:16.966Z,86.53
2018-06-20T02:11:46.495Z,86.82
2018-06-20T02:14:15.722Z,86.65
2018-06-20T02:16:45.076Z,87.07
2018-06-20T02:19:14.611Z,86.67
2018-06-20T02:21:43.860Z,87.19
2018-06-20T02:24:13.090Z,87.21
2018-06-20T02:26:42.575Z,87.20
2018-06-20T02:29:12.074Z,87.52
2018-06-20T02:31:42.199Z,87.63
2018-06-20T02:34:11.703Z,87.41
2018-06-20T02:36:41.167Z,87.14
2018-06-20T02:39:11.013Z,86.97
2018-06-20T02:41:40.530Z,87.16
2018-06-20T02:44:10.107Z,87.24
2018-06-20T02:46:39.676Z,87.40
2018-06-20T02:49:09.441Z,87.33
2018-06-20T02:51:41.217Z,87.21
2018-06-20T02:54:12.430Z,87.26
2018-06-20T02:56:41.663Z,86.78
2018-06-20T02:59:12.352Z,86.94
2018-06-20T03:01:41.992Z,87.11
2018-06-20T03:04:14.632Z,87.04
2018-06-20T03:06:44.203Z,87.20
2018-06-20T03:09:18.631Z,86.87
2018-06-20T03:11:48.803Z,87.20
2018-06-20T03:14:19.231Z,86.75
2018-06-20T03:16:48.438Z,86.63
2018-06-20T03:19:18.465Z,86.33
2018-06-20T03:21:48.136Z,86.79
2018-06-20T03:24:17.655Z,86.33
2018-06-20T03:26:47.763Z,86.45
2018-06-20T03:29:17.291Z,86.84
2018-06-20T03:31:47.831Z,86.58
2018-06-20T03:34:17.052Z,85.89
2018-06-20T03:36:47.059Z,86.31
2018-06-20T03:39:17.547Z,85.87
2018-06-20T03:41:47.799Z,86.48
2018-06-20T03:44:17.231Z,86.86
2018-06-20T03:46:46.871Z,86.33
2018-06-20T03:49:16.474Z,86.19
2018-06-20T03:51:46.270Z,86.22
2018-06-20T03:54:15.726Z,85.58
2018-06-20T03:56:45.341Z,85.42
2018-06-20T03:59:15.918Z,85.28
2018-06-20T04:01:45.862Z,85.55
2018-06-20T04:04:15.327Z,85.62
2018-06-20T04:06:44.536Z,85.94
2018-06-20T04:09:14.304Z,85.09
2018-06-20T04:11:44.218Z,85.04
2018-06-20T04:15:37.803Z,84.50
2018-06-20T04:18:08.615Z,84.32
2018-06-20T04:20:37.795Z,84.55
2018-06-20T04:23:07.891Z,85.40
2018-06-20T04:25:37.074Z,84.75
2018-06-20T04:28:06.957Z,84.11
2018-06-20T04:30:36.123Z,84.10
2018-06-20T04:33:05.563Z,83.89
2018-06-20T04:35:35.027Z,83.20
2018-06-20T04:38:04.259Z,83.14
2018-06-20T04:40:33.480Z,83.01
2018-06-20T04:43:03.914Z,81.82
2018-06-20T04:45:33.179Z,82.54
2018-06-20T04:48:02.625Z,83.66
2018-06-20T04:50:32.107Z,84.19
2018-06-20T04:53:01.540Z,84.11
2018-06-20T04:55:30.830Z,84.13
2018-06-20T04:58:00.464Z,83.96
2018-06-20T05:00:29.907Z,81.76
2018-06-20T05:02:59.087Z,80.42
2018-06-20T05:05:28.343Z,79.93
2018-06-20T05:07:57.790Z,77.87
2018-06-20T05:10:29.185Z,77.50
2018-06-20T05:12:59.286Z,76.27
2018-06-20T05:15:28.591Z,76.04
2018-06-20T05:17:59.051Z,74.69
2018-06-20T05:20:28.466Z,74.93
2018-06-20T05:22:57.658Z,74.59
2018-06-20T05:25:27.704Z,73.46
2018-06-20T05:27:57.492Z,73.38
2018-06-20T05:30:27.384Z,73.62
2018-06-20T05:32:56.830Z,73.89
2018-06-20T05:35:26.936Z,73.47
2018-06-20T05:37:56.624Z,72.76
2018-06-20T05:40:25.835Z,72.84
2018-06-20T05:42:55.131Z,72.03
2018-06-20T05:45:24.339Z,70.67
2018-06-20T05:47:53.720Z,70.16
2018-06-20T05:50:24.027Z,68.45
2018-06-20T05:52:53.200Z,68.90
2018-06-20T05:55:22.434Z,69.30
2018-06-20T05:57:52.756Z,67.77
2018-06-20T06:00:22.698Z,65.24
2018-06-20T06:02:52.299Z,62.31
2018-06-20T06:05:23.823Z,59.14
2018-06-20T06:07:53.129Z,57.13
2018-06-20T06:10:23.506Z,60.04
2018-06-20T06:12:55.318Z,61.98
2018-06-20T06:15:24.539Z,59.54
2018-06-20T06:17:53.991Z,57.03
2018-06-20T06:20:24.203Z,53.21
2018-06-20T06:22:56.956Z,49.11
2018-06-20T06:25:26.166Z,50.04
2018-06-20T06:27:56.936Z,51.57
2018-06-20T06:30:26.122Z,48.71
2018-06-20T06:32:55.887Z,48.92
2018-06-20T06:35:25.876Z,50.50
2018-06-20T06:37:56.916Z,49.37
2018-06-20T06:40:26.480Z,49.86
2018-06-20T06:42:56.615Z,52.27
2018-06-20T06:45:26.055Z,51.56
2018-06-20T06:47:55.722Z,56.42
2018-06-20T06:50:24.919Z,56.73
2018-06-20T06:52:54.175Z,57.44
2018-06-20T06:55:24.116Z,56.04
2018-06-20T06:57:53.615Z,52.03
2018-06-20T07:00:24.948Z,48.48
2018-06-20T07:02:54.687Z,46.40
2018-06-20T07:05:23.892Z,42.25
2018-06-20T07:07:54.088Z,42.51
2018-06-20T07:10:23.383Z,40.75
2018-06-20T07:12:52.882Z,42.55
2018-06-20T07:15:23.327Z,40.77
2018-06-20T07:17:53.796Z,40.63
2018-06-20T07:20:23.411Z,38.23
2018-06-20T07:22:52.878Z,36.72
2018-06-20T07:25:22.043Z,39.15
2018-06-20T07:27:52.855Z,38.74
2018-06-20T07:30:23.283Z,41.67
2018-06-20T07:32:54.079Z,49.96
2018-06-20T07:35:24.740Z,51.63
2018-06-20T07:37:53.943Z,54.28
2018-06-20T07:40:23.122Z,58.31
2018-06-20T07:42:52.311Z,58.15
2018-06-20T07:45:21.706Z,58.74
2018-06-20T07:47:50.887Z,59.16
2018-06-20T07:50:21.611Z,55.78
2018-06-20T07:52:51.136Z,55.59
2018-06-20T07:55:20.482Z,55.74
2018-06-20T07:57:49.955Z,48.68
2018-06-20T08:00:24.495Z,45.71
2018-06-20T08:03:10.371Z,42.51
2018-06-20T08:05:45.123Z,49.36
2018-06-20T08:08:19.594Z,45.85
2018-06-20T08:10:54.357Z,43.96
2018-06-20T08:13:29.079Z,38.26
2018-06-20T08:16:03.502Z,34.46
2018-06-20T08:18:38.004Z,34.52
2018-06-20T08:21:07.371Z,41.70
2018-06-20T08:23:36.823Z,40.46
2018-06-20T08:26:06.036Z,41.15
2018-06-20T08:28:35.252Z,39.28
2018-06-20T08:31:04.435Z,35.26
2018-06-20T08:33:33.923Z,34.08
2018-06-20T08:36:03.595Z,33.97
2018-06-20T08:38:32.786Z,35.58
2018-06-20T08:41:01.966Z,39.47
2018-06-20T08:43:31.339Z,36.80
2018-06-20T08:46:00.911Z,37.84
2018-06-20T08:48:30.109Z,39.50
2018-06-20T08:51:00.127Z,41.52
2018-06-20T08:53:29.968Z,37.78
2018-06-20T08:55:59.150Z,42.02
2018-06-20T08:58:28.483Z,44.43
2018-06-20T09:01:01.526Z,47.44
2018-06-20T09:03:31.010Z,39.39
2018-06-20T09:06:06.456Z,33.83
2018-06-20T09:08:40.878Z,36.35
2018-06-20T09:11:15.898Z,34.62
2018-06-20T09:13:50.414Z,35.90
2018-06-20T09:16:25.490Z,32.41
2018-06-20T09:18:59.907Z,31.72
2018-06-20T09:21:29.159Z,33.33
2018-06-20T09:23:58.338Z,35.06
2018-06-20T09:26:27.573Z,37.58
2018-06-20T09:28:57.371Z,38.55
2018-06-20T09:31:26.874Z,40.32
2018-06-20T09:33:56.526Z,41.28
2018-06-20T09:36:26.627Z,40.51
2018-06-20T09:38:55.798Z,41.63
2018-06-20T09:41:25.007Z,40.79
2018-06-20T09:43:54.459Z,33.42
2018-06-20T09:46:23.834Z,33.54
2018-06-20T09:48:53.014Z,37.04
2018-06-20T09:51:22.231Z,40.41
2018-06-20T09:53:51.980Z,41.25
2018-06-20T09:56:21.314Z,37.46
2018-06-20T09:58:50.787Z,31.20
2018-06-20T10:01:26.244Z,29.70
2018-06-20T10:04:00.699Z,26.30
2018-06-20T10:06:35.144Z,30.59
2018-06-20T10:09:09.847Z,32.77
2018-06-20T10:11:44.857Z,35.53
2018-06-20T10:14:14.467Z,36.97
2018-06-20T10:16:44.105Z,33.41
2018-06-20T10:19:13.295Z,29.44
2018-06-20T10:21:42.610Z,30.51
2018-06-20T10:24:11.804Z,32.25
2018-06-20T10:26:41.046Z,35.11
2018-06-20T10:29:10.239Z,31.43
2018-06-20T10:31:39.879Z,33.15
2018-06-20T10:34:09.386Z,34.98
2018-06-20T10:36:38.835Z,28.12
2018-06-20T10:39:09.935Z,26.74
2018-06-20T10:41:40.227Z,26.31
2018-06-20T12:00:15.363Z,23.95
2018-06-20T12:02:49.971Z,23.39
2018-06-20T12:05:24.515Z,23.33
2018-06-20T12:07:59.219Z,21.59
2018-06-20T12:10:33.763Z,23.44
2018-06-20T12:13:08.203Z,23.30
2018-06-20T12:15:42.616Z,22.66
2018-06-20T12:18:17.171Z,24.34
2018-06-20T12:20:51.734Z,23.62
2018-06-20T12:23:26.902Z,23.45
2018-06-20T12:26:01.495Z,22.78
2018-06-20T12:28:36.587Z,23.30
2018-06-20T12:31:11.118Z,21.56
2018-06-20T12:33:45.540Z,23.13
2018-06-20T12:36:19.935Z,21.92
2018-06-20T12:38:54.297Z,24.26
2018-06-20T12:41:28.991Z,24.39
2018-06-20T12:44:03.479Z,26.26
2018-06-20T12:46:38.912Z,24.83
2018-06-20T12:49:09.243Z,22.91
2018-06-20T12:51:38.852Z,24.85
2018-06-20T12:54:08.423Z,26.78
2018-06-20T12:56:37.650Z,30.40
2018-06-20T12:59:06.960Z,27.37
2018-06-20T13:01:36.163Z,24.71
2018-06-20T13:04:05.371Z,26.54
2018-06-20T13:06:34.542Z,26.40
2018-06-20T13:09:05.971Z,25.44
2018-06-20T13:11:35.195Z,24.79
2018-06-20T13:14:04.543Z,26.90
2018-06-20T13:16:33.986Z,26.22
2018-06-20T13:19:03.210Z,25.51
2018-06-20T13:21:32.418Z,24.12
2018-06-20T13:24:01.595Z,26.32
2018-06-20T13:26:30.795Z,25.46
2018-06-20T13:28:59.985Z,27.26
2018-06-20T13:31:34.654Z,26.57
2018-06-20T13:34:09.369Z,26.75
2018-06-20T13:36:43.863Z,27.25
2018-06-20T13:39:18.490Z,26.63
2018-06-20T13:41:52.827Z,24.43
2018-06-20T13:44:23.302Z,26.15
2018-06-20T13:46:58.302Z,24.20
2018-06-20T13:49:27.977Z,23.28
2018-06-20T13:51:57.239Z,23.58
2018-06-20T13:54:26.435Z,23.82
2018-06-20T13:56:55.850Z,23.83
2018-06-20T13:59:25.069Z,26.53
2018-06-20T14:01:54.212Z,25.93
2018-06-20T14:04:23.798Z,26.48
2018-06-20T14:06:53.422Z,25.88
2018-06-20T14:09:23.012Z,25.30
2018-06-20T14:11:52.749Z,26.61
2018-06-20T14:14:22.294Z,27.16
2018-06-20T14:16:51.548Z,27.94
2018-06-20T14:19:24.854Z,30.34
2018-06-20T14:21:54.331Z,26.79
2018-06-20T14:24:23.507Z,28.41
2018-06-20T14:26:52.826Z,27.14
2018-06-20T14:29:22.347Z,27.08
2018-06-20T14:31:57.211Z,26.58
2018-06-20T14:34:32.795Z,26.78
2018-06-20T14:37:07.195Z,29.12
2018-06-20T14:39:41.658Z,28.29
2018-06-20T14:42:16.210Z,29.90
2018-06-20T14:44:45.758Z,30.24
2018-06-20T14:47:15.401Z,30.02
2018-06-20T14:49:45.619Z,29.99
2018-06-20T14:52:15.255Z,31.85
2018-06-20T14:54:44.441Z,31.47
2018-06-20T14:57:13.962Z,31.86
2018-06-20T14:59:43.159Z,29.39
2018-06-20T15:02:12.367Z,31.60
2018-06-20T15:04:41.571Z,32.60
2018-06-20T15:07:11.196Z,33.33
2018-06-20T15:09:40.704Z,32.05
2018-06-20T15:12:10.227Z,34.02
2018-06-20T15:14:39.435Z,31.67
2018-06-20T15:17:13.963Z,32.15
2018-06-20T15:19:43.383Z,33.00
2018-06-20T15:22:12.690Z,31.73
2018-06-20T15:24:41.930Z,30.19
2018-06-20T15:27:16.349Z,31.61
2018-06-20T15:29:50.825Z,32.14
2018-06-20T15:32:25.315Z,31.53
2018-06-20T15:34:59.974Z,32.48
2018-06-20T15:37:34.859Z,31.48
2018-06-20T15:40:04.679Z,31.77
2018-06-20T15:42:33.878Z,32.21
2018-06-20T15:45:03.335Z,31.69
2018-06-20T15:47:32.511Z,31.88
2018-06-20T15:50:01.750Z,31.24
2018-06-20T15:52:31.160Z,31.09
2018-06-20T15:55:00.482Z,31.28
2018-06-20T15:57:30.710Z,31.12
2018-06-20T16:00:00.260Z,30.30
2018-06-20T16:02:29.882Z,30.77
2018-06-20T16:04:59.079Z,32.74
2018-06-20T16:07:28.266Z,33.13
2018-06-20T16:09:59.203Z,33.74
2018-06-20T16:12:28.558Z,31.13
2018-06-20T16:14:58.168Z,34.08
2018-06-20T16:17:27.620Z,33.38
2018-06-20T16:20:01.981Z,31.47
2018-06-20T16:22:36.972Z,32.28
2018-06-20T16:25:11.810Z,31.58
2018-06-20T16:27:46.203Z,32.24
2018-06-20T16:30:20.867Z,33.22
2018-06-20T16:32:50.064Z,31.98
2018-06-20T16:35:19.643Z,33.21
2018-06-20T16:37:48.821Z,34.36
2018-06-20T16:40:18.031Z,33.72
2018-06-20T16:42:47.254Z,34.06
2018-06-20T16:45:16.438Z,33.66
2018-06-20T16:47:45.679Z,33.00
2018-06-20T16:50:15.051Z,34.32
2018-06-20T16:52:44.274Z,35.00
2018-06-20T16:55:13.482Z,34.21
2018-06-20T16:57:42.930Z,35.44
2018-06-20T17:00:12.234Z,36.36
2018-06-20T17:02:42.644Z,35.67
2018-06-20T17:05:12.470Z,36.03
2018-06-20T17:07:41.868Z,35.66
2018-06-20T17:10:11.268Z,36.51
2018-06-20T17:12:46.139Z,37.67
2018-06-20T17:15:20.776Z,36.96
2018-06-20T17:17:55.106Z,37.96
2018-06-20T17:20:29.839Z,36.34
2018-06-20T17:23:05.328Z,36.69
2018-06-20T17:25:35.278Z,36.78
2018-06-20T17:28:04.767Z,36.64
2018-06-20T17:30:34.314Z,36.60
2018-06-20T17:33:04.103Z,37.74
2018-06-20T17:35:33.395Z,38.16
2018-06-20T17:38:02.663Z,37.30
2018-06-20T17:40:31.779Z,38.71
2018-06-20T17:43:01.510Z,38.24
2018-06-20T17:45:30.711Z,38.12
2018-06-20T17:47:59.922Z,38.75
2018-06-20T17:50:29.987Z,39.13
2018-06-20T17:52:59.191Z,39.92
2018-06-20T17:55:28.843Z,39.31
2018-06-20T17:57:58.151Z,38.98
2018-06-20T18:00:27.714Z,40.46
2018-06-20T18:02:56.927Z,40.86
2018-06-20T18:05:31.367Z,40.41
2018-06-20T18:08:05.811Z,39.93
2018-06-20T18:10:40.234Z,40.45
2018-06-20T18:13:09.423Z,40.75
2018-06-20T18:15:44.030Z,39.12
2018-06-20T18:18:13.443Z,40.20
2018-06-20T18:20:42.633Z,41.26
2018-06-20T18:23:11.836Z,42.49
2018-06-20T18:25:41.013Z,41.11
2018-06-20T18:28:10.219Z,43.73
2018-06-20T18:30:39.789Z,46.04
2018-06-20T18:33:08.999Z,45.75
2018-06-20T18:35:38.591Z,47.25
2018-06-20T18:38:08.436Z,48.63
2018-06-20T18:40:37.614Z,50.03
2018-06-20T18:43:06.975Z,51.01
2018-06-20T18:45:36.237Z,51.07
2018-06-20T18:48:12.963Z,51.21
2018-06-20T18:50:42.830Z,51.48
2018-06-20T18:53:12.142Z,52.80
2018-06-20T18:55:41.347Z,53.97
2018-06-20T18:58:15.771Z,54.77
2018-06-20T19:00:50.550Z,56.76
2018-06-20T19:03:25.070Z,56.42
2018-06-20T19:05:59.488Z,57.48
2018-06-20T19:08:34.627Z,58.15
2018-06-20T19:11:03.928Z,59.75
2018-06-20T19:15:02.283Z,60.69
2018-06-20T19:17:31.423Z,61.33
2018-06-20T19:20:00.926Z,62.12
2018-06-20T19:22:30.114Z,63.45
2018-06-20T19:25:00.400Z,63.80
2018-06-20T19:27:29.986Z,63.49
2018-06-20T19:29:59.207Z,64.14
2018-06-20T19:32:28.474Z,64.49
2018-06-20T19:34:58.318Z,64.59
2018-06-20T19:37:27.779Z,64.91
2018-06-20T19:39:56.991Z,65.82
2018-06-20T19:42:26.830Z,65.36
2018-06-20T19:44:56.088Z,65.88
2018-06-20T19:47:25.402Z,67.11
2018-06-20T19:49:55.334Z,66.32
2018-06-20T19:52:24.947Z,67.79
2018-06-20T19:54:54.550Z,67.36
2018-06-20T19:57:23.735Z,67.36
2018-06-20T19:59:52.982Z,67.79
2018-06-20T20:02:22.456Z,68.49
2018-06-20T20:04:51.879Z,68.00
2018-06-20T20:07:21.064Z,69.58
2018-06-20T20:09:50.478Z,68.08
2018-06-20T20:12:19.671Z,68.51
2018-06-20T20:14:48.911Z,69.00
2018-06-20T20:17:18.046Z,69.09
2018-06-20T20:19:47.222Z,69.27
2018-06-20T20:22:16.422Z,69.87
2018-06-20T20:24:45.584Z,70.02
2018-06-20T20:27:15.155Z,70.66
2018-06-20T20:29:44.341Z,71.07
2018-06-20T20:32:13.558Z,70.89
2018-06-20T20:34:42.735Z,70.97
2018-06-20T20:37:12.363Z,71.28
2018-06-20T20:39:41.931Z,71.30
2018-06-20T20:42:11.171Z,70.83
2018-06-20T20:44:40.475Z,71.80
2018-06-20T20:47:09.906Z,71.61
2018-06-20T20:49:39.152Z,70.88
2018-06-20T20:52:08.408Z,70.88
2018-06-20T20:54:38.765Z,70.50
2018-06-20T20:57:08.415Z,69.83
2018-06-20T20:59:39.119Z,71.41
2018-06-20T21:02:09.263Z,71.61
2018-06-20T21:04:38.747Z,71.16
2018-06-20T21:07:08.287Z,71.31
2018-06-20T21:09:38.604Z,71.58
2018-06-20T21:12:07.903Z,71.63
2018-06-20T21:14:38.640Z,71.70
2018-06-20T21:17:07.843Z,72.29
2018-06-20T21:19:37.302Z,72.34
2018-06-20T21:22:06.607Z,72.66
2018-06-20T21:24:35.799Z,72.73
2018-06-20T21:27:05.031Z,72.78
2018-06-20T21:29:34.601Z,72.54
2018-06-20T21:32:03.763Z,72.16
2018-06-20T21:34:32.968Z,72.25
2018-06-20T21:37:02.139Z,72.22
2018-06-20T21:39:31.352Z,73.03
2018-06-20T21:42:00.838Z,72.74
2018-06-20T21:44:30.362Z,72.49
2018-06-20T21:46:59.555Z,72.99
2018-06-20T21:49:28.755Z,73.00
2018-06-20T21:51:57.958Z,72.67
2018-06-20T21:54:27.171Z,73.42
2018-06-20T21:56:56.346Z,73.64
2018-06-20T21:59:25.862Z,73.61
2018-06-20T22:01:55.376Z,73.46
2018-06-20T22:04:24.619Z,73.84
2018-06-20T22:06:54.058Z,74.04
2018-06-20T22:09:23.683Z,73.57
2018-06-20T22:11:53.559Z,74.48
2018-06-20T22:14:23.196Z,74.64
2018-06-20T22:16:53.110Z,74.69
2018-06-20T22:19:22.310Z,74.98
2018-06-20T22:21:52.291Z,75.08
2018-06-20T22:24:22.202Z,75.57
2018-06-20T22:26:51.370Z,76.15
2018-06-20T22:29:21.296Z,75.86
2018-06-20T22:31:50.415Z,76.23
2018-06-20T22:34:20.519Z,75.82
2018-06-20T22:36:49.985Z,76.76
2018-06-20T22:39:19.198Z,76.52
2018-06-20T22:41:48.368Z,76.46
2018-06-20T22:44:17.567Z,76.76
2018-06-20T22:46:46.820Z,77.21
2018-06-20T22:49:16.450Z,76.61
2018-06-20T22:51:45.639Z,76.66
2018-06-20T22:54:14.864Z,77.21
2018-06-20T22:56:44.339Z,76.99
2018-06-20T22:59:13.558Z,76.78
2018-06-20T23:01:42.838Z,77.01
2018-06-20T23:04:12.237Z,77.52
2018-06-20T23:06:42.157Z,77.55
2018-06-20T23:09:11.994Z,77.90
2018-06-20T23:11:47.967Z,77.75
2018-06-20T23:14:17.679Z,77.60
2018-06-20T23:16:47.103Z,78.30
2018-06-20T23:19:16.272Z,77.97
2018-06-20T23:21:45.515Z,78.10
2018-06-20T23:24:14.990Z,79.03
2018-06-20T23:26:44.794Z,78.65
2018-06-20T23:29:13.991Z,78.91
2018-06-20T23:31:43.922Z,79.52
2018-06-20T23:34:13.531Z,79.33
2018-06-20T23:36:42.734Z,79.71
2018-06-20T23:39:12.022Z,79.29
2018-06-20T23:41:41.231Z,79.47
2018-06-20T23:44:10.402Z,79.97
2018-06-20T23:46:39.607Z,80.03
2018-06-20T23:49:09.236Z,79.55
2018-06-20T23:51:38.551Z,79.93
2018-06-20T23:54:08.114Z,80.26
2018-06-20T23:56:37.646Z,79.41
2018-06-20T23:59:07.131Z,79.81
